Time;durP1;ratioP1;P1;durP2;ratioP2;P2;SDS_P1;SDS_P2;PMS_P1;PMS_P2;Temp;Humidity;BMP_temperature;BMP_pressure;BME280_temperature;BME280_humidity;BME280_pressure;Samples;Min_cycle;Max_cycle;Signal;HPM_P1;HPM_P2
2023/09/13 00:01:07;;;;;;;4.13;3.73;;;;;;;22.04;64.89;98422.41;4978920;28;41432;-83
2023/09/13 00:03:35;;;;;;;6.90;4.40;;;;;;;22.01;65.37;98429.00;4979947;28;40693;-83
2023/09/13 00:06:01;;;;;;;4.70;3.57;;;;;;;21.68;66.12;98378.97;4977961;28;42504;-83
2023/09/13 00:08:29;;;;;;;4.00;3.60;;;;;;;22.02;66.06;98440.63;4993900;28;42268;-83
2023/09/13 00:11:02;;;;;;;4.73;3.73;;;;;;;21.99;67.13;98443.69;4994291;28;39896;-84
2023/09/13 00:13:32;;;;;;;4.50;3.50;;;;;;;21.90;67.23;98442.00;4991541;28;42621;-83
2023/09/13 00:16:00;;;;;;;4.77;3.67;;;;;;;21.97;67.37;98459.16;4977531;28;42174;-84
2023/09/13 00:18:28;;;;;;;4.30;3.90;;;;;;;21.97;66.94;98459.16;4993366;28;42388;-83
2023/09/13 00:20:55;;;;;;;7.30;4.70;;;;;;;21.88;67.21;98449.47;4994466;28;41145;-83
2023/09/13 00:23:23;;;;;;;5.00;3.80;;;;;;;21.95;67.68;98462.03;4977930;28;41495;-83
2023/09/13 00:25:50;;;;;;;5.23;4.57;;;;;;;21.74;67.42;98433.03;4993925;28;43510;-83
2023/09/13 00:28:18;;;;;;;4.73;4.23;;;;;;;21.90;67.68;98460.88;4994109;28;41704;-83
2023/09/13 00:30:47;;;;;;;4.73;4.30;;;;;;;21.84;67.86;98463.28;5011394;28;40792;-83
2023/09/13 00:33:14;;;;;;;4.17;3.77;;;;;;;21.88;67.45;98471.03;4977671;28;42661;-84
2023/09/13 00:35:42;;;;;;;5.03;3.93;;;;;;;21.76;67.46;98463.31;5011053;28;42945;-83
2023/09/13 00:38:09;;;;;;;4.40;3.70;;;;;;;21.84;67.07;98490.25;4978210;28;41285;-83
2023/09/13 00:40:37;;;;;;;3.73;3.33;;;;;;;21.82;67.17;98484.19;4994997;28;41985;-83
2023/09/13 00:43:05;;;;;;;4.40;4.00;;;;;;;21.70;67.05;98471.28;4995163;28;42657;-83
2023/09/13 00:45:34;;;;;;;4.10;3.47;;;;;;;21.71;67.19;98481.88;5012416;28;42845;-83
2023/09/13 00:48:04;;;;;;;4.30;3.67;;;;;;;21.73;66.95;98496.03;4995039;28;42366;-83
2023/09/13 00:50:32;;;;;;;4.20;3.50;;;;;;;21.79;67.14;98506.09;4978622;28;41140;-83
2023/09/13 00:53:00;;;;;;;3.97;3.60;;;;;;;21.79;67.67;98500.69;4995071;28;41776;-83
2023/09/13 00:55:28;;;;;;;5.13;3.80;;;;;;;21.73;67.64;98490.63;4978588;28;41690;-83
2023/09/13 00:57:57;;;;;;;4.37;3.73;;;;;;;21.78;67.31;98504.41;4978519;28;42236;-83
2023/09/13 01:00:26;;;;;;;7.00;4.47;;;;;;;21.75;67.14;98499.41;4994811;28;41454;-83
2023/09/13 01:02:55;;;;;;;4.67;3.83;;;;;;;21.65;67.33;98490.66;4994744;28;41915;-83
2023/09/13 01:05:24;;;;;;;4.50;4.07;;;;;;;21.69;67.86;98499.25;4978107;28;41905;-83
2023/09/13 01:07:52;;;;;;;5.07;3.90;;;;;;;21.60;67.49;98493.06;4976170;28;40922;-83
2023/09/13 01:10:20;;;;;;;4.80;3.60;;;;;;;21.55;67.18;98475.72;5011163;28;40728;-83
2023/09/13 01:12:47;;;;;;;3.80;3.43;;;;;;;21.65;67.50;98492.50;4977323;28;40686;-83
2023/09/13 01:15:15;;;;;;;5.00;4.47;;;;;;;21.66;67.82;98500.41;4977182;28;42855;-83
2023/09/13 01:17:53;;;;;;;5.53;4.63;;;;;;;21.59;68.56;98507.53;4977229;28;41127;-83
2023/09/13 01:20:34;;;;;;;5.07;3.90;;;;;;;21.64;68.19;98529.41;4990575;28;40853;-83
2023/09/13 01:23:17;;;;;;;4.37;3.87;;;;;;;21.47;68.09;98517.84;4992775;28;41736;-83
2023/09/13 01:26:02;;;;;;;5.63;3.63;;;;;;;21.68;68.16;98541.53;4976973;28;42953;-83
2023/09/13 01:28:41;;;;;;;3.90;3.53;;;;;;;21.72;68.15;98537.47;4977865;28;41288;-83
2023/09/13 01:31:10;;;;;;;3.40;3.03;;;;;;;21.75;67.58;98537.13;4993897;28;41923;-83
2023/09/13 01:33:39;;;;;;;4.17;3.77;;;;;;;21.80;67.33;98532.03;4980799;28;40514;-83
2023/09/13 01:36:06;;;;;;;3.37;3.00;;;;;;;21.82;67.64;98538.09;4996163;28;41972;-83
2023/09/13 01:38:34;;;;;;;3.63;3.33;;;;;;;21.74;67.39;98524.66;4981517;28;42533;-83
2023/09/13 01:41:08;;;;;;;4.10;3.70;;;;;;;21.88;67.39;98541.13;4981070;28;41103;-83
2023/09/13 01:43:40;;;;;;;4.03;3.40;;;;;;;21.82;67.19;98524.63;4981350;28;40496;-83
2023/09/13 01:46:08;;;;;;;4.00;3.60;;;;;;;21.93;67.29;98546.81;4981096;28;41772;-83
2023/09/13 01:48:38;;;;;;;3.43;3.13;;;;;;;21.94;67.37;98548.50;4997875;28;42344;-83
2023/09/13 01:51:07;;;;;;;4.93;4.07;;;;;;;21.86;67.70;98527.81;4981252;28;41337;-83
2023/09/13 01:53:43;;;;;;;4.37;3.80;;;;;;;21.88;67.69;98524.94;5015132;28;42538;-83
2023/09/13 01:56:11;;;;;;;4.57;3.63;;;;;;;21.97;67.24;98538.22;5003609;28;42487;-83
2023/09/13 01:58:40;;;;;;;4.87;3.83;;;;;;;21.97;68.15;98545.47;5005281;28;41774;-83
2023/09/13 02:01:07;;;;;;;5.93;4.47;;;;;;;21.87;68.63;98524.09;4990678;28;39608;-82
2023/09/13 02:03:35;;;;;;;3.80;3.47;;;;;;;21.98;68.48;98541.75;4981259;28;41822;-83
2023/09/13 02:06:02;;;;;;;4.37;3.93;;;;;;;21.99;68.48;98538.06;4979675;28;41746;-83
2023/09/13 02:08:30;;;;;;;6.30;4.50;;;;;;;21.98;68.69;98526.41;4995926;28;43096;-83
2023/09/13 02:10:57;;;;;;;4.73;4.23;;;;;;;21.99;68.76;98524.59;4996135;28;41047;-83
2023/09/13 02:13:26;;;;;;;5.00;4.30;;;;;;;22.02;68.67;98526.91;4996074;28;40926;-83
2023/09/13 02:15:55;;;;;;;4.93;4.27;;;;;;;21.93;68.58;98503.66;4979616;28;41630;-83
2023/09/13 02:18:23;;;;;;;4.30;3.90;;;;;;;21.94;68.25;98505.34;4980152;28;42343;-83
2023/09/13 02:20:51;;;;;;;4.67;3.30;;;;;;;22.03;68.39;98515.09;4979900;28;41326;-83
2023/09/13 02:23:18;;;;;;;4.03;3.60;;;;;;;21.79;67.84;98473.75;4979629;28;40927;-83
2023/09/13 02:25:47;;;;;;;3.67;3.37;;;;;;;22.03;67.66;98509.72;4995779;28;43295;-83
2023/09/13 02:28:15;;;;;;;4.73;3.73;;;;;;;22.00;68.09;98502.84;4995675;28;42117;-84
2023/09/13 02:30:42;;;;;;;3.63;3.33;;;;;;;21.98;67.89;98507.53;4996102;28;40951;-83
2023/09/13 02:33:13;;;;;;;4.20;3.27;;;;;;;21.86;67.61;98480.13;4979159;28;40522;-83
2023/09/13 02:35:40;;;;;;;4.27;3.60;;;;;;;21.95;67.83;98499.78;4979239;28;42859;-83
2023/09/13 02:38:08;;;;;;;4.10;3.70;;;;;;;21.83;67.63;98480.47;4980260;28;41376;-83
2023/09/13 02:40:37;;;;;;;4.33;3.93;;;;;;;21.71;67.38;98465.72;4996435;28;41004;-83
2023/09/13 02:43:05;;;;;;;4.40;3.17;;;;;;;21.90;67.62;98501.31;4996820;28;41956;-83
2023/09/13 02:45:33;;;;;;;3.40;3.10;;;;;;;21.88;67.63;98504.22;4997052;28;42851;-83
2023/09/13 02:48:01;;;;;;;4.27;3.87;;;;;;;21.86;67.54;98507.09;4996429;28;42538;-83
2023/09/13 02:50:30;;;;;;;4.13;3.73;;;;;;;21.88;67.62;98511.47;4996768;28;41912;-83
2023/09/13 02:52:58;;;;;;;3.93;3.10;;;;;;;21.84;67.49;98509.13;4980197;28;40934;-83
2023/09/13 02:55:25;;;;;;;3.47;3.17;;;;;;;21.83;67.52;98511.97;4980114;28;41343;-83
2023/09/13 02:57:53;;;;;;;3.23;2.93;;;;;;;21.72;67.10;98494.34;4980527;28;41129;-83
2023/09/13 03:00:22;;;;;;;3.60;3.30;;;;;;;21.81;67.38;98509.47;4980392;28;39850;-83
2023/09/13 03:02:50;;;;;;;3.37;2.93;;;;;;;21.80;67.25;98515.88;4980269;28;40589;-83
2023/09/13 03:05:19;;;;;;;3.53;3.23;;;;;;;21.81;66.92;98519.41;4996011;28;41687;-83
2023/09/13 03:07:48;;;;;;;3.43;3.13;;;;;;;21.80;67.06;98528.50;4979901;28;41238;-83
2023/09/13 03:10:15;;;;;;;3.40;3.10;;;;;;;21.55;67.03;98479.25;4980366;28;39989;-83
2023/09/13 03:12:43;;;;;;;3.73;3.43;;;;;;;21.69;67.05;98505.47;4979916;28;40608;-83
2023/09/13 03:15:11;;;;;;;3.07;2.80;;;;;;;21.42;66.63;98463.63;4979989;28;41716;-83
2023/09/13 03:17:39;;;;;;;3.70;3.30;;;;;;;21.80;66.65;98531.19;4994447;28;42741;-83
2023/09/13 03:20:09;;;;;;;4.57;3.03;;;;;;;21.73;66.96;98520.28;4995443;28;40635;-83
2023/09/13 03:22:37;;;;;;;4.30;3.90;;;;;;;21.77;67.32;98529.69;4994815;28;41960;-83
2023/09/13 03:25:06;;;;;;;3.77;3.47;;;;;;;21.77;67.75;98526.16;4995011;28;42772;-83
2023/09/13 03:27:34;;;;;;;5.33;4.07;;;;;;;21.75;68.13;98525.50;4978540;28;41296;-83
2023/09/13 03:30:03;;;;;;;4.37;3.83;;;;;;;21.75;67.78;98525.50;4995295;28;41137;-83
2023/09/13 03:32:32;;;;;;;4.23;3.83;;;;;;;21.72;68.04;98526.69;4994939;28;41651;-83
2023/09/13 03:35:00;;;;;;;3.80;3.40;;;;;;;21.61;68.10;98505.50;4978938;28;41668;-84
2023/09/13 03:37:28;;;;;;;4.10;3.70;;;;;;;21.71;68.44;98519.63;4995178;28;42458;-83
2023/09/13 03:39:56;;;;;;;5.70;4.00;;;;;;;21.71;68.46;98525.00;4996190;28;41896;-83
2023/09/13 03:42:25;;;;;;;4.27;3.23;;;;;;;21.70;68.81;98523.31;4988050;28;41016;-83
2023/09/13 03:44:52;;;;;;;4.10;3.70;;;;;;;21.69;68.54;98529.72;4996223;28;43735;-83
2023/09/13 03:47:20;;;;;;;3.77;3.47;;;;;;;21.66;68.61;98527.38;4979496;28;41557;-82
2023/09/13 03:49:47;;;;;;;4.97;3.40;;;;;;;21.65;68.79;98525.69;4980038;28;40369;-83
2023/09/13 03:52:15;;;;;;;7.20;3.70;;;;;;;21.50;69.13;98505.88;4978438;28;40593;-83
2023/09/13 03:54:43;;;;;;;4.13;3.73;;;;;;;21.55;69.37;98530.44;4979413;28;44120;-84
2023/09/13 03:57:10;;;;;;;4.93;3.20;;;;;;;21.26;69.21;98497.88;4978962;28;41551;-83
2023/09/13 03:59:39;;;;;;;3.73;3.40;;;;;;;21.40;69.51;98535.69;4995797;28;42021;-83
2023/09/13 04:02:07;;;;;;;4.47;3.27;;;;;;;21.36;69.18;98547.00;4995448;28;42415;-83
2023/09/13 04:04:34;;;;;;;4.90;3.67;;;;;;;21.28;69.35;98533.53;4995535;28;43518;-83
2023/09/13 04:07:02;;;;;;;3.67;3.37;;;;;;;21.10;69.46;98515.72;4994002;28;42165;-83
2023/09/13 04:09:29;;;;;;;4.40;3.63;;;;;;;21.15;69.96;98534.88;4977973;28;40932;-83
2023/09/13 04:11:57;;;;;;;3.30;3.00;;;;;;;21.09;70.16;98538.25;4993932;28;41803;-83
2023/09/13 04:14:24;;;;;;;3.80;3.47;;;;;;;20.70;70.10;98484.28;4970467;28;42755;-83
2023/09/13 04:16:54;;;;;;;3.87;3.47;;;;;;;20.91;70.48;98521.44;4977668;28;40753;-83
2023/09/13 04:19:21;;;;;;;6.00;3.40;;;;;;;20.97;70.60;98536.09;4994228;28;41595;-83
2023/09/13 04:21:49;;;;;;;3.83;3.43;;;;;;;20.81;71.06;98526.16;4994039;28;41505;-83
2023/09/13 04:24:17;;;;;;;4.87;3.70;;;;;;;20.87;71.38;98547.03;4994219;28;43448;-83
2023/09/13 04:26:44;;;;;;;4.23;3.80;;;;;;;20.76;71.16;98539.31;4977002;28;41353;-77
2023/09/13 04:29:12;;;;;;;4.07;3.67;;;;;;;20.75;71.95;98548.38;4977047;28;40979;-76
2023/09/13 04:31:39;;;;;;;3.70;3.40;;;;;;;20.80;72.36;98562.16;4992847;28;42558;-76
2023/09/13 04:34:08;;;;;;;3.80;3.50;;;;;;;20.76;72.38;98566.22;4976671;28;42120;-77
2023/09/13 04:36:38;;;;;;;4.17;3.77;;;;;;;20.76;72.04;98571.59;4975847;28;41546;-77
2023/09/13 04:39:07;;;;;;;4.60;3.60;;;;;;;20.73;72.21;98567.38;4977382;28;40793;-77
2023/09/13 04:41:35;;;;;;;3.80;3.33;;;;;;;20.67;72.26;98567.19;4976992;28;42142;-77
2023/09/13 04:44:02;;;;;;;4.10;3.70;;;;;;;20.70;72.66;98577.63;4993657;28;43609;-76
2023/09/13 04:46:30;;;;;;;4.90;4.03;;;;;;;20.68;73.17;98568.88;4977173;28;42033;-77
2023/09/13 04:48:58;;;;;;;5.10;3.50;;;;;;;20.71;73.79;98573.94;4977316;28;40820;-76
2023/09/13 04:51:28;;;;;;;4.70;3.70;;;;;;;20.57;73.41;98550.38;4977119;28;40572;-76
2023/09/13 04:53:55;;;;;;;3.80;3.40;;;;;;;20.70;73.90;98572.25;4993313;28;42832;-77
2023/09/13 04:56:23;;;;;;;4.10;3.70;;;;;;;20.67;73.52;98576.09;4991861;28;42514;-76
2023/09/13 04:58:51;;;;;;;3.53;3.23;;;;;;;20.66;73.33;98573.56;4976613;28;40673;-75
2023/09/13 05:01:18;;;;;;;4.10;3.70;;;;;;;20.65;74.20;98579.97;4976891;28;42196;-76
2023/09/13 05:03:48;;;;;;;4.93;3.50;;;;;;;20.62;74.51;98581.16;4994366;28;43475;-76
2023/09/13 05:06:15;;;;;;;4.20;3.53;;;;;;;20.62;74.01;98583.00;4978567;28;41505;-76
2023/09/13 05:08:44;;;;;;;4.30;3.87;;;;;;;20.47;74.20;98557.75;4995406;28;41264;-76
2023/09/13 05:11:12;;;;;;;4.30;3.73;;;;;;;20.57;74.72;98583.50;4978780;28;42034;-76
2023/09/13 05:13:40;;;;;;;3.90;3.17;;;;;;;20.32;74.98;98547.59;4995610;28;43764;-77
2023/09/13 05:16:07;;;;;;;3.83;3.17;;;;;;;20.55;75.27;98584.66;4995362;28;42281;-77
2023/09/13 05:18:35;;;;;;;3.57;3.27;;;;;;;20.54;74.57;98594.59;4995629;28;40979;-77
2023/09/13 05:21:02;;;;;;;3.87;3.53;;;;;;;20.56;74.40;98602.50;4979156;28;42012;-76
2023/09/13 05:23:30;;;;;;;3.70;3.40;;;;;;;20.56;73.97;98603.34;4995585;28;43461;-76
2023/09/13 05:25:59;;;;;;;3.77;3.33;;;;;;;20.50;74.27;98585.19;4978811;28;41150;-76
2023/09/13 05:28:31;;;;;;;3.60;3.23;;;;;;;20.55;74.28;98592.72;5012954;28;40722;-76
2023/09/13 05:30:58;;;;;;;3.40;3.10;;;;;;;20.53;74.11;98592.91;4979154;28;40744;-76
2023/09/13 05:33:26;;;;;;;5.40;4.10;;;;;;;20.54;74.94;98591.03;4995319;28;42912;-76
2023/09/13 05:35:54;;;;;;;4.13;3.67;;;;;;;20.51;74.72;98592.25;5012859;28;42434;-76
2023/09/13 05:38:22;;;;;;;3.57;3.27;;;;;;;20.42;74.77;98571.69;4979552;28;41482;-76
2023/09/13 05:40:50;;;;;;;3.37;3.07;;;;;;;20.53;74.79;98597.44;4996090;28;41718;-76
2023/09/13 05:43:18;;;;;;;3.53;3.23;;;;;;;20.53;75.01;98616.25;5013464;28;42528;-76
2023/09/13 05:45:46;;;;;;;3.67;3.33;;;;;;;20.52;74.87;98602.00;4996112;28;43327;-76
2023/09/13 05:48:13;;;;;;;3.93;3.53;;;;;;;20.45;74.60;98590.19;4995940;28;40101;-76
2023/09/13 05:50:41;;;;;;;3.70;2.90;;;;;;;20.61;74.08;98627.91;5013715;28;41951;-76
2023/09/13 05:53:08;;;;;;;3.27;2.97;;;;;;;20.75;74.08;98632.66;5013322;28;43842;-76
2023/09/13 05:55:37;;;;;;;4.70;3.50;;;;;;;20.87;74.27;98632.34;5013501;28;43393;-76
2023/09/13 05:58:05;;;;;;;3.40;3.10;;;;;;;21.04;73.44;98640.25;4995345;28;39811;-76
2023/09/13 06:00:34;;;;;;;4.30;3.27;;;;;;;21.17;73.05;98645.97;4980069;28;43227;-79
2023/09/13 06:03:02;;;;;;;5.23;3.10;;;;;;;21.27;72.77;98644.97;4996439;28;41890;-86
2023/09/13 06:05:29;;;;;;;3.03;2.73;;;;;;;21.29;72.22;98637.56;4980260;28;41355;-86
2023/09/13 06:07:57;;;;;;;4.17;2.80;;;;;;;21.27;72.21;98631.50;4978894;28;39960;-87
2023/09/13 06:10:24;;;;;;;3.67;2.97;;;;;;;21.38;71.95;98641.97;4978794;28;41808;-79
2023/09/13 06:12:52;;;;;;;3.20;3.00;;;;;;;21.55;72.02;98659.78;4978874;28;41850;-80
2023/09/13 06:15:20;;;;;;;5.40;2.40;;;;;;;21.67;71.34;98662.97;4994540;28;42259;-81
2023/09/13 06:17:51;;;;;;;3.20;2.50;;;;;;;21.78;70.83;98649.97;4995530;28;40080;-80
2023/09/13 06:20:19;;;;;;;2.70;2.50;;;;;;;21.98;70.28;98660.41;4992855;28;42667;-81
2023/09/13 06:22:46;;;;;;;2.70;2.43;;;;;;;22.04;69.86;98654.31;4995142;28;42817;-80
2023/09/13 06:25:16;;;;;;;3.20;2.47;;;;;;;22.17;69.41;98660.03;4979242;28;42376;-82
2023/09/13 06:27:44;;;;;;;2.20;2.00;;;;;;;22.27;68.96;98671.44;4979182;28;39977;-80
2023/09/13 06:30:12;;;;;;;2.17;1.83;;;;;;;22.33;68.62;98676.16;4995451;28;41902;-80
2023/09/13 06:32:48;;;;;;;4.10;2.30;;;;;;;22.36;68.13;98669.56;4977628;28;42253;-86
2023/09/13 06:35:17;;;;;;;2.80;2.30;;;;;;;22.28;67.77;98624.56;4979614;28;42351;-87
2023/09/13 06:37:45;;;;;;;2.47;2.00;;;;;;;22.66;67.51;98665.19;5002502;28;40218;-89
2023/09/13 06:40:13;;;;;;;1.97;1.87;;;;;;;22.90;66.99;98673.19;4999665;28;40774;-82
2023/09/13 06:42:40;;;;;;;3.40;2.20;;;;;;;23.27;65.86;98678.66;4999071;28;41596;-84
2023/09/13 06:45:10;;;;;;;2.37;2.13;;;;;;;23.28;64.80;98656.00;4999394;28;41221;-88
2023/09/13 06:47:37;;;;;;;2.33;2.03;;;;;;;23.47;64.17;98680.88;4998984;28;40610;-87
2023/09/13 06:50:06;;;;;;;3.80;2.40;;;;;;;23.55;63.93;98689.78;4999245;28;42191;-82
2023/09/13 06:52:35;;;;;;;3.40;2.00;;;;;;;23.61;63.82;98699.84;4999311;28;42113;-87
2023/09/13 06:55:03;;;;;;;2.23;2.10;;;;;;;23.68;63.47;98718.91;4999755;28;41141;-84
2023/09/13 06:57:31;;;;;;;2.33;2.03;;;;;;;23.71;62.85;98715.00;4998193;28;39842;-80
2023/09/13 06:59:59;;;;;;;1.70;1.60;;;;;;;23.68;62.74;98704.53;5015703;28;41208;-83
2023/09/13 07:02:26;;;;;;;1.93;1.83;;;;;;;24.14;62.00;98716.94;5015181;28;43147;-82
2023/09/13 07:04:54;;;;;;;1.77;1.63;;;;;;;24.78;61.20;98725.34;5015266;28;41356;-79
2023/09/13 07:07:21;;;;;;;1.90;1.70;;;;;;;25.42;59.40;98734.44;5012481;28;40054;-81
2023/09/13 07:09:50;;;;;;;2.70;1.93;;;;;;;26.07;57.42;98737.94;5013733;28;41571;-77
2023/09/13 07:12:18;;;;;;;2.17;1.97;;;;;;;26.35;56.69;98746.94;4997300;28;43200;-78
2023/09/13 07:14:45;;;;;;;2.10;1.90;;;;;;;26.66;54.96;98743.78;5013841;28;41179;-78
2023/09/13 07:17:15;;;;;;;2.37;1.87;;;;;;;27.14;53.67;98750.06;5013819;28;41103;-85
2023/09/13 07:19:42;;;;;;;2.23;1.70;;;;;;;27.39;53.01;98749.50;5013883;28;42505;-81
2023/09/13 07:22:10;;;;;;;2.07;1.87;;;;;;;27.40;52.70;98757.47;5031622;28;43718;-82
2023/09/13 07:24:37;;;;;;;2.70;1.90;;;;;;;27.35;52.46;98759.94;5013926;28;41394;-82
2023/09/13 07:27:06;;;;;;;2.87;1.90;;;;;;;27.23;52.18;98767.03;5013601;28;40445;-83
2023/09/13 07:29:34;;;;;;;2.90;1.93;;;;;;;26.89;52.83;98742.63;5013828;28;41323;-86
2023/09/13 07:32:03;;;;;;;2.30;1.63;;;;;;;26.46;52.86;98704.78;4997667;28;42020;-84
2023/09/13 07:34:30;;;;;;;2.40;2.20;;;;;;;26.62;53.06;98758.78;4997420;28;42517;-83
2023/09/13 07:37:05;;;;;;;3.97;2.10;;;;;;;26.44;53.70;98761.22;4997730;28;41033;-85
2023/09/13 07:39:41;;;;;;;1.70;1.60;;;;;;;26.12;53.91;98733.59;5000440;28;20775;-85
2023/09/13 07:42:11;;;;;;;1.80;1.70;;;;;;;26.20;54.16;98748.06;4998152;28;41740;-84
2023/09/13 07:44:38;;;;;;;2.23;2.03;;;;;;;26.24;54.12;98768.34;5014632;28;43380;-83
2023/09/13 07:47:06;;;;;;;2.63;2.03;;;;;;;26.19;54.46;98768.09;5014856;28;40678;-82
2023/09/13 07:49:34;;;;;;;2.23;2.03;;;;;;;26.02;54.29;98762.13;5014452;28;40929;-82
2023/09/13 07:52:01;;;;;;;2.40;1.57;;;;;;;25.99;54.83;98778.78;5032080;28;42717;-85
2023/09/13 07:54:29;;;;;;;2.23;2.10;;;;;;;25.96;55.09;98776.50;4998858;28;41562;-82
2023/09/13 07:56:57;;;;;;;2.30;1.70;;;;;;;25.92;55.03;98772.47;4999095;28;39900;-85
2023/09/13 07:59:26;;;;;;;2.20;2.00;;;;;;;25.95;55.06;98777.53;4999273;28;41292;-89
2023/09/13 08:01:53;;;;;;;2.27;1.93;;;;;;;26.02;55.01;98787.38;4981960;28;42015;-84
2023/09/13 08:04:21;;;;;;;3.00;2.70;;;;;;;26.04;54.89;98788.03;5031155;28;42291;-79
2023/09/13 08:06:48;;;;;;;4.30;2.27;;;;;;;25.90;55.18;98778.09;4996106;28;39825;-80
2023/09/13 08:09:17;;;;;;;2.30;2.10;;;;;;;26.03;55.00;98797.22;5013798;28;40485;-85
2023/09/13 08:11:47;;;;;;;2.40;2.00;;;;;;;26.07;54.88;98808.53;5013359;28;42790;-81
2023/09/13 08:14:14;;;;;;;2.40;2.20;;;;;;;26.06;54.82;98804.13;5013451;28;41709;-80
2023/09/13 08:16:43;;;;;;;2.27;2.07;;;;;;;26.04;54.82;98804.31;5030283;28;40980;-78
2023/09/13 08:19:11;;;;;;;3.10;2.80;;;;;;;25.97;54.88;98786.28;5012621;28;41652;-83
2023/09/13 08:21:39;;;;;;;2.63;2.40;;;;;;;26.09;54.89;98807.25;5012997;28;41659;-81
2023/09/13 08:24:06;;;;;;;2.50;2.00;;;;;;;26.09;54.55;98801.00;4996502;28;42233;-81
2023/09/13 08:30:08;;;;;;;3.17;2.20;;;;;;;26.10;54.71;98819.81;4996449;28;40980;-91
2023/09/13 08:32:37;;;;;;;3.03;2.03;;;;;;;26.19;54.62;98803.41;4996796;28;42998;-85
2023/09/13 08:35:06;;;;;;;2.87;2.57;;;;;;;27.24;53.28;98828.53;4996031;28;41399;-79
2023/09/13 08:37:33;;;;;;;2.70;2.50;;;;;;;28.78;50.40;98846.59;4996518;28;41604;-80
2023/09/13 08:40:01;;;;;;;2.30;2.10;;;;;;;29.59;48.37;98846.97;5019961;28;40736;-87
2023/09/13 08:42:34;;;;;;;2.60;2.07;;;;;;;29.85;46.81;98812.38;5014540;28;42998;-83
2023/09/13 08:45:02;;;;;;;2.60;2.40;;;;;;;30.93;45.00;98881.28;5026727;28;41344;-84
2023/09/13 08:47:31;;;;;;;2.77;2.57;;;;;;;30.72;44.73;98874.34;5012455;28;40877;-76
2023/09/13 08:50:03;;;;;;;4.10;2.70;;;;;;;30.17;44.97;98882.31;5019318;28;41726;-77
2023/09/13 08:52:32;;;;;;;2.50;2.30;;;;;;;29.58;45.79;98872.56;5019317;28;41729;-77
2023/09/13 08:55:01;;;;;;;3.57;2.80;;;;;;;29.12;46.60;98877.34;5020360;28;42457;-84
2023/09/13 08:57:30;;;;;;;2.50;2.30;;;;;;;28.89;47.20;98865.03;5020148;28;40308;-83
2023/09/13 08:59:58;;;;;;;4.07;2.90;;;;;;;29.36;46.44;98879.38;5020475;28;41761;-85
2023/09/13 09:02:26;;;;;;;3.13;2.53;;;;;;;30.33;44.98;98872.75;5003856;28;41961;-88
2023/09/13 09:04:56;;;;;;;3.97;2.80;;;;;;;30.98;44.00;98879.56;5004019;28;41196;-88
2023/09/13 09:07:26;;;;;;;3.00;2.70;;;;;;;31.23;43.11;98903.31;5018959;28;40892;-83
2023/09/13 09:09:55;;;;;;;3.53;2.87;;;;;;;31.34;42.61;98906.13;5002392;28;40940;-79
2023/09/13 09:12:24;;;;;;;3.57;2.80;;;;;;;31.08;42.75;98895.44;5018759;28;43870;-88
2023/09/13 09:14:53;;;;;;;3.07;2.87;;;;;;;30.93;42.57;98904.00;5002364;28;41444;-83
2023/09/13 09:17:24;;;;;;;3.90;3.13;;;;;;;31.21;42.25;98913.66;5019034;28;40262;-92
2023/09/13 09:19:52;;;;;;;3.23;2.93;;;;;;;31.69;42.05;98909.09;5036195;28;41779;-86
2023/09/13 09:22:22;;;;;;;2.90;2.70;;;;;;;31.79;41.26;98900.31;5018994;28;42734;-87
2023/09/13 09:24:51;;;;;;;2.97;2.67;;;;;;;31.83;40.69;98887.84;5018602;28;42205;-82
2023/09/13 09:27:19;;;;;;;4.17;3.10;;;;;;;32.05;41.01;98883.50;5019133;28;40886;-82
2023/09/13 09:29:47;;;;;;;3.50;3.10;;;;;;;32.40;40.64;98902.81;5002285;28;42026;-86
2023/09/13 09:32:14;;;;;;;3.40;3.10;;;;;;;32.35;40.58;98897.22;5018631;28;43477;-82
2023/09/13 09:34:42;;;;;;;3.57;3.00;;;;;;;32.36;40.09;98907.13;5001787;28;42040;-80
2023/09/13 09:37:11;;;;;;;3.13;2.83;;;;;;;32.30;39.83;98910.78;5001594;28;41091;-83
2023/09/13 09:39:41;;;;;;;3.23;2.93;;;;;;;32.34;39.76;98906.50;5037248;28;41937;-85
2023/09/13 09:42:31;;;;;;;3.17;2.87;;;;;;;32.29;40.31;98889.91;4962837;28;43464;-83
2023/09/13 09:44:58;;;;;;;3.30;3.00;;;;;;;32.29;40.76;98876.22;4978979;28;42520;-84
2023/09/13 09:47:26;;;;;;;2.90;2.60;;;;;;;32.45;39.80;98913.91;4962282;28;40148;-80
2023/09/13 09:49:53;;;;;;;3.03;2.80;;;;;;;32.00;40.61;98909.94;4977136;28;41846;-83
2023/09/13 09:52:21;;;;;;;3.27;2.77;;;;;;;31.68;40.97;98912.06;4975696;28;43507;-80
2023/09/13 09:54:50;;;;;;;3.63;2.83;;;;;;;31.23;41.42;98906.06;4991434;28;43276;-82
2023/09/13 09:57:22;;;;;;;3.30;3.00;;;;;;;30.92;42.26;98907.78;4991542;28;41073;-79
2023/09/13 09:59:51;;;;;;;3.80;3.50;;;;;;;30.82;42.28;98902.00;4996161;28;42521;-80
2023/09/13 10:02:25;;;;;;;3.00;2.70;;;;;;;30.92;42.49;98907.78;5015454;28;43567;-79
2023/09/13 10:04:53;;;;;;;4.93;2.77;;;;;;;30.99;41.95;98903.13;5014814;28;41147;-82
2023/09/13 10:07:20;;;;;;;3.70;3.40;;;;;;;31.24;41.50;98914.03;5032062;28;41986;-79
2023/09/13 10:09:48;;;;;;;3.97;3.17;;;;;;;31.83;40.81;98915.22;5014356;28;42016;-81
2023/09/13 10:12:16;;;;;;;3.80;2.87;;;;;;;32.41;39.59;98923.69;5015100;28;42791;-86
2023/09/13 10:14:46;;;;;;;3.63;3.00;;;;;;;32.70;39.15;98937.56;5014987;28;41720;-84
2023/09/13 10:17:17;;;;;;;3.17;2.87;;;;;;;32.85;38.47;98939.88;5015245;28;40839;-85
2023/09/13 10:19:48;;;;;;;2.70;2.50;;;;;;;33.13;37.92;98943.59;4998215;28;41936;-82
2023/09/13 10:22:18;;;;;;;3.10;2.87;;;;;;;33.35;37.69;98946.59;4998628;28;41906;-82
2023/09/13 10:24:52;;;;;;;3.20;2.80;;;;;;;33.38;37.65;98950.78;5014378;28;42528;-83
2023/09/13 10:27:24;;;;;;;2.83;2.63;;;;;;;33.59;37.30;98954.78;5014625;28;39846;-82
2023/09/13 10:29:57;;;;;;;3.20;3.00;;;;;;;34.11;36.75;98944.63;5031283;28;41750;-83
2023/09/13 10:32:31;;;;;;;3.30;2.80;;;;;;;34.21;36.40;98912.66;5021184;28;42913;-83
2023/09/13 10:35:02;;;;;;;2.92;2.72;;;;;;;35.76;35.09;98968.00;4997839;28;42732;-81
2023/09/13 10:37:41;;;;;;;2.78;2.58;;;;;;;37.06;32.69;98983.47;5014285;28;39942;-83
2023/09/13 10:40:19;;;;;;;3.47;2.53;;;;;;;36.82;32.52;98987.69;5014727;28;41734;-83
2023/09/13 10:42:47;;;;;;;3.10;2.90;;;;;;;36.21;32.59;98978.75;5015886;28;41708;-83
2023/09/13 10:45:18;;;;;;;3.40;3.10;;;;;;;35.66;33.31;98968.66;5014642;28;42587;-82
2023/09/13 10:47:48;;;;;;;3.28;2.88;;;;;;;35.36;34.49;98958.06;5015490;28;41001;-84
2023/09/13 10:50:16;;;;;;;3.27;2.97;;;;;;;35.04;33.85;98977.09;4998549;28;41798;-87
2023/09/13 10:52:44;;;;;;;2.97;2.77;;;;;;;34.87;34.86;98965.25;5015423;28;43914;-85
2023/09/13 10:55:13;;;;;;;3.50;3.20;;;;;;;34.99;34.86;98960.50;5014649;28;42068;-83
2023/09/13 10:57:42;;;;;;;4.77;3.50;;;;;;;35.22;34.11;98974.09;5015417;28;41819;-82
2023/09/13 11:00:11;;;;;;;3.97;3.57;;;;;;;35.21;33.94;98972.44;5032604;28;41879;-87
2023/09/13 11:02:39;;;;;;;5.40;3.00;;;;;;;35.16;33.66;98975.09;5014676;28;42653;-85
2023/09/13 11:05:09;;;;;;;3.87;3.57;;;;;;;34.88;34.28;98945.75;4998065;28;41345;-88
2023/09/13 11:07:41;;;;;;;4.10;3.67;;;;;;;34.51;34.27;98945.38;5013684;28;41073;-85
2023/09/13 11:10:13;;;;;;;4.20;3.80;;;;;;;34.06;34.91;98928.84;4997766;28;41283;-84
2023/09/13 11:12:43;;;;;;;3.27;2.97;;;;;;;33.81;35.34;98975.06;4998206;28;42000;-86
2023/09/13 11:15:14;;;;;;;3.30;3.03;;;;;;;33.14;36.35;98964.44;5031570;28;43061;-88
2023/09/13 11:17:43;;;;;;;3.57;3.27;;;;;;;32.43;37.20;98959.91;5014090;28;41314;-86
2023/09/13 11:20:30;;;;;;;4.00;3.60;;;;;;;31.85;38.28;98950.63;4997313;28;41997;-83
2023/09/13 11:23:01;;;;;;;5.13;3.03;;;;;;;31.31;39.32;98944.06;5030164;28;42683;-82
2023/09/13 11:25:31;;;;;;;3.27;2.97;;;;;;;30.87;40.09;98940.47;5010527;28;43251;-81
2023/09/13 11:27:59;;;;;;;3.53;3.23;;;;;;;30.59;40.64;98937.34;4996549;28;41461;-82
2023/09/13 11:30:51;;;;;;;3.90;3.60;;;;;;;30.73;41.50;98938.06;5031286;28;42082;-82
2023/09/13 11:33:19;;;;;;;3.80;3.50;;;;;;;31.50;40.65;98921.09;5012924;28;42925;-82
2023/09/13 11:35:50;;;;;;;4.73;3.77;;;;;;;32.64;38.71;98928.34;5013067;28;42703;-82
2023/09/13 11:38:18;;;;;;;3.80;3.20;;;;;;;33.08;37.69;98957.19;5031452;28;40948;-81
2023/09/13 11:40:48;;;;;;;3.47;3.17;;;;;;;33.24;37.44;98960.31;5014172;28;41857;-82
2023/09/13 11:43:22;;;;;;;3.60;2.93;;;;;;;33.02;37.28;98944.41;5012847;28;41761;-83
2023/09/13 11:45:50;;;;;;;3.50;3.20;;;;;;;33.01;37.32;98959.19;5011665;28;42186;-82